Shin Puropan Maru — JG5508 — position and weather

sailwx.info

Track history (hours):
 
Tides and Currents Weather Stations Pressure Air Temp Water Temp Dewpoint Dewpoint Depression Visibility Wind Speed Wind Dir Waves Ship Positions

Shin Puropan Maru

Last reported at 2015-Aug-30 07:33 UTC. Time now 2015-Aug-31 15:21 UTC.
Position N 35°14' E 139°46'.

Length 66 m; draft 4.1 m.

Type: Ship (hazmat cat A). MMSI: 431100348.

Date/timePositionNaut miles runAvg speedWind from/ knotsBaromVisibWave heightAir tempDewpointWater temp
2015-Aug-30 07:33N 35°14' E 139°46'1110.8
2015-Aug-30 06:33N 35°24' E 139°43'1111.5
2015-Aug-30 05:33N 35°31' E 139°54'9 8.8
2015-Aug-30 04:33N 35°33' E 140°05'0 0.0
2015-Aug-30 03:30N 35°33' E 140°05'0 0.0
2015-Aug-30 02:30N 35°33' E 140°05'1 1.1
2015-Aug-30 01:33N 35°33' E 140°04'0 0.1
2015-Aug-30 00:32N 35°33' E 140°04'0 0.0
2015-Aug-29 23:10N 35°33' E 140°04'6 9.2
2015-Aug-29 22:33N 35°32' E 139°58'1211.9
2015-Aug-29 21:33N 35°24' E 139°46'1010.5
2015-Aug-29 20:33N 35°14' E 139°47'  
2015-Aug-27 12:30N 34°02' E 135°00'1212.0
2015-Aug-27 11:32N 34°14' E 134°59'2110.7
2015-Aug-27 09:34N 34°31' E 135°14'10 1.7
2015-Aug-27 03:33N 34°34' E 135°26'1 0.2
2015-Aug-26 23:19N 34°34' E 135°25'2 2.5
2015-Aug-26 22:33N 34°35' E 135°23'0 0.0
2015-Aug-26 21:33N 34°35' E 135°23'0 0.0
2015-Aug-26 20:33N 34°35' E 135°23'0 0.0
2015-Aug-26 19:33N 34°35' E 135°23'0 0.0
2015-Aug-26 18:33N 34°34' E 135°23'0 0.0
2015-Aug-26 17:33N 34°35' E 135°23'0 0.0
2015-Aug-26 16:33N 34°35' E 135°23'0 0.1
2015-Aug-26 15:33N 34°35' E 135°23'0 0.0
2015-Aug-26 14:31N 34°35' E 135°23'0 0.0
2015-Aug-26 12:21N 34°35' E 135°23'0 0.0
2015-Aug-26 11:29N 34°35' E 135°23'0 0.0
2015-Aug-26 10:19N 34°35' E 135°23'0 0.0
2015-Aug-26 09:33N 34°35' E 135°23'0 0.0
2015-Aug-26 08:33N 34°35' E 135°23'0 0.0
2015-Aug-26 07:30N 34°35' E 135°23'0 0.0
2015-Aug-26 06:33N 34°35' E 135°23'0 0.0
2015-Aug-26 05:33N 34°35' E 135°23'1111.0
2015-Aug-26 04:33N 34°29' E 135°12'4 4.4
2015-Aug-26 03:33N 34°25' E 135°09'1 0.4
2015-Aug-26 00:05N 34°23' E 135°10'0 0.0
2015-Aug-25 23:26N 34°23' E 135°10'0 0.0
2015-Aug-25 22:17N 34°24' E 135°10'0 0.0
2015-Aug-25 21:11N 34°24' E 135°10'0 0.0
2015-Aug-25 20:23N 34°24' E 135°10'0 0.0
2015-Aug-25 19:29N 34°24' E 135°10'0 0.0
2015-Aug-25 18:29N 34°24' E 135°10'0 0.0
2015-Aug-25 15:29N 34°24' E 135°10'0 0.0
2015-Aug-25 14:29N 34°24' E 135°10'0 0.0
2015-Aug-25 06:29N 34°24' E 135°10'0 0.0
2015-Aug-25 05:23N 34°24' E 135°10'0 0.0
2015-Aug-25 04:23N 34°24' E 135°10'0 0.0
2015-Aug-25 03:29N 34°24' E 135°10'0 0.0
2015-Aug-25 01:17N 34°23' E 135°10'0 0.0
2015-Aug-25 00:17N 34°23' E 135°10'0 0.0
2015-Aug-24 23:29N 34°23' E 135°10'0 0.0
2015-Aug-24 22:29N 34°23' E 135°10'0 0.0
2015-Aug-24 21:23N 34°23' E 135°10'0 0.0
2015-Aug-24 18:29N 34°24' E 135°10'0 0.0
2015-Aug-24 15:23N 34°23' E 135°10'0 0.0
2015-Aug-24 14:11N 34°23' E 135°10'0 0.0
2015-Aug-24 13:29N 34°23' E 135°10'0 0.0
2015-Aug-24 12:17N 34°23' E 135°10'0 0.0
2015-Aug-24 10:22N 34°24' E 135°10'911.1
2015-Aug-24 09:33N 34°31' E 135°17'8 8.1
2015-Aug-24 08:33N 34°34' E 135°26'0 0.0
2015-Aug-24 03:10N 34°34' E 135°26'3 5.3
2015-Aug-24 02:33N 34°36' E 135°23'10 9.9
2015-Aug-24 01:33N 34°30' E 135°14'1111.0
2015-Aug-24 00:33N 34°22' E 135°05'9 9.2
2015-Aug-23 23:32N 34°13' E 134°59'  
2015-Aug-21 06:07N 34°03' E 135°00'711.5
2015-Aug-21 05:29N 34°10' E 134°59'2010.2
2015-Aug-21 03:33N 34°28' E 135°10'1212.1
2015-Aug-21 02:33N 34°36' E 135°21'4 1.2
2015-Aug-20 23:06N 34°34' E 135°26'2 3.6
2015-Aug-20 22:33N 34°36' E 135°24'9 9.0
2015-Aug-20 21:33N 34°31' E 135°15'1111.0
2015-Aug-20 20:33N 34°23' E 135°06'10 9.8
2015-Aug-20 19:30N 34°15' E 134°59'  
Track history (hours):
 
Tides and Currents Weather Stations Pressure Air Temp Water Temp Dewpoint Dewpoint Depression Visibility Wind Speed Wind Dir Waves Ship Positions

Shin Puropan Maru

Last reported at 2015-Aug-30 07:33 UTC. Time now 2015-Aug-31 15:21 UTC.
Position N 35°14' E 139°46'.

Length 66 m; draft 4.1 m.

Type: Ship (hazmat cat A). MMSI: 431100348.

Date/timePositionNaut miles runAvg speedWind from/ knotsBaromVisibWave heightAir tempDewpointWater temp
2015-Aug-30 07:33N 35°14' E 139°46'1110.8
2015-Aug-30 06:33N 35°24' E 139°43'1111.5
2015-Aug-30 05:33N 35°31' E 139°54'9 8.8
2015-Aug-30 04:33N 35°33' E 140°05'0 0.0
2015-Aug-30 03:30N 35°33' E 140°05'0 0.0
2015-Aug-30 02:30N 35°33' E 140°05'1 1.1
2015-Aug-30 01:33N 35°33' E 140°04'0 0.1
2015-Aug-30 00:32N 35°33' E 140°04'0 0.0
2015-Aug-29 23:10N 35°33' E 140°04'6 9.2
2015-Aug-29 22:33N 35°32' E 139°58'1211.9
2015-Aug-29 21:33N 35°24' E 139°46'1010.5
2015-Aug-29 20:33N 35°14' E 139°47'  
2015-Aug-27 12:30N 34°02' E 135°00'1212.0
2015-Aug-27 11:32N 34°14' E 134°59'2110.7
2015-Aug-27 09:34N 34°31' E 135°14'10 1.7
2015-Aug-27 03:33N 34°34' E 135°26'1 0.2
2015-Aug-26 23:19N 34°34' E 135°25'2 2.5
2015-Aug-26 22:33N 34°35' E 135°23'0 0.0
2015-Aug-26 21:33N 34°35' E 135°23'0 0.0
2015-Aug-26 20:33N 34°35' E 135°23'0 0.0
2015-Aug-26 19:33N 34°35' E 135°23'0 0.0
2015-Aug-26 18:33N 34°34' E 135°23'0 0.0
2015-Aug-26 17:33N 34°35' E 135°23'0 0.0
2015-Aug-26 16:33N 34°35' E 135°23'0 0.1
2015-Aug-26 15:33N 34°35' E 135°23'0 0.0
2015-Aug-26 14:31N 34°35' E 135°23'0 0.0
2015-Aug-26 12:21N 34°35' E 135°23'0 0.0
2015-Aug-26 11:29N 34°35' E 135°23'0 0.0
2015-Aug-26 10:19N 34°35' E 135°23'0 0.0
2015-Aug-26 09:33N 34°35' E 135°23'0 0.0
2015-Aug-26 08:33N 34°35' E 135°23'0 0.0
2015-Aug-26 07:30N 34°35' E 135°23'0 0.0
2015-Aug-26 06:33N 34°35' E 135°23'0 0.0
2015-Aug-26 05:33N 34°35' E 135°23'1111.0
2015-Aug-26 04:33N 34°29' E 135°12'4 4.4
2015-Aug-26 03:33N 34°25' E 135°09'1 0.4
2015-Aug-26 00:05N 34°23' E 135°10'0 0.0
2015-Aug-25 23:26N 34°23' E 135°10'0 0.0
2015-Aug-25 22:17N 34°24' E 135°10'0 0.0
2015-Aug-25 21:11N 34°24' E 135°10'0 0.0
2015-Aug-25 20:23N 34°24' E 135°10'0 0.0
2015-Aug-25 19:29N 34°24' E 135°10'0 0.0
2015-Aug-25 18:29N 34°24' E 135°10'0 0.0
2015-Aug-25 15:29N 34°24' E 135°10'0 0.0
2015-Aug-25 14:29N 34°24' E 135°10'0 0.0
2015-Aug-25 06:29N 34°24' E 135°10'0 0.0
2015-Aug-25 05:23N 34°24' E 135°10'0 0.0
2015-Aug-25 04:23N 34°24' E 135°10'0 0.0
2015-Aug-25 03:29N 34°24' E 135°10'0 0.0
2015-Aug-25 01:17N 34°23' E 135°10'0 0.0
2015-Aug-25 00:17N 34°23' E 135°10'0 0.0
2015-Aug-24 23:29N 34°23' E 135°10'0 0.0
2015-Aug-24 22:29N 34°23' E 135°10'0 0.0
2015-Aug-24 21:23N 34°23' E 135°10'0 0.0
2015-Aug-24 18:29N 34°24' E 135°10'0 0.0
2015-Aug-24 15:23N 34°23' E 135°10'0 0.0
2015-Aug-24 14:11N 34°23' E 135°10'0 0.0
2015-Aug-24 13:29N 34°23' E 135°10'0 0.0
2015-Aug-24 12:17N 34°23' E 135°10'0 0.0
2015-Aug-24 10:22N 34°24' E 135°10'911.1
2015-Aug-24 09:33N 34°31' E 135°17'8 8.1
2015-Aug-24 08:33N 34°34' E 135°26'0 0.0
2015-Aug-24 03:10N 34°34' E 135°26'3 5.3
2015-Aug-24 02:33N 34°36' E 135°23'10 9.9
2015-Aug-24 01:33N 34°30' E 135°14'1111.0
2015-Aug-24 00:33N 34°22' E 135°05'9 9.2
2015-Aug-23 23:32N 34°13' E 134°59'  
2015-Aug-21 06:07N 34°03' E 135°00'711.5
2015-Aug-21 05:29N 34°10' E 134°59'2010.2
2015-Aug-21 03:33N 34°28' E 135°10'1212.1
2015-Aug-21 02:33N 34°36' E 135°21'4 1.2
2015-Aug-20 23:06N 34°34' E 135°26'2 3.6
2015-Aug-20 22:33N 34°36' E 135°24'9 9.0
2015-Aug-20 21:33N 34°31' E 135°15'1111.0
2015-Aug-20 20:33N 34°23' E 135°06'10 9.8
2015-Aug-20 19:30N 34°15' E 134°59'  

Dump ship's entire track history